Terminal Aerodrome Forecast
Issued by NWS La Crosse, WI

Home | Current Version | Previous Version | Text Only | Print | Product List | Glossary On
Versions: 1 2 3 4 5 6 7 8 9 10 11 12 13 14 15 16 17 18 19 20 21
000
FTUS43 KARX 271418 AAB
TAFLSE
TAF AMD
KLSE 271418Z 2714/2812 33003KT 1SM BR OVC003
     FM271600 33003KT 3SM BR OVC006
     FM271800 35004KT P6SM OVC012
     FM280400 02004KT P6SM BKN040=

USA.gov is the U.S. government's official web portal to all federal, state and local government web resources and services.